Time;durP1;ratioP1;P1;durP2;ratioP2;P2;SDS_P1;SDS_P2;PMS_P1;PMS_P2;Temp;Humidity;BMP_temperature;BMP_pressure;BME280_temperature;BME280_humidity;BME280_pressure;Samples;Min_cycle;Max_cycle;Signal;HPM_P1;HPM_P2
2021/08/16 00:04:41;;;;;;;9.50;5.15;;;;;;;25.91;42.55;95069.47;4939821;28;20378;-75
2021/08/16 00:07:07;;;;;;;7.28;4.30;;;;;;;25.87;42.35;95073.78;4945855;29;20054;-74
2021/08/16 00:09:32;;;;;;;7.95;5.40;;;;;;;25.82;42.28;95078.09;4961366;28;20043;-75
2021/08/16 00:11:58;;;;;;;6.43;4.15;;;;;;;25.79;42.54;95079.13;4965293;28;20030;-75
2021/08/16 00:14:23;;;;;;;5.68;4.80;;;;;;;25.81;42.06;95076.63;4963906;28;20030;-75
2021/08/16 00:16:48;;;;;;;6.13;4.50;;;;;;;25.80;42.87;95075.16;4965032;28;20038;-75
2021/08/16 00:19:14;;;;;;;8.60;4.75;;;;;;;25.79;42.31;95073.66;4966234;28;20042;-75
2021/08/16 00:21:39;;;;;;;6.78;5.05;;;;;;;25.85;42.56;95071.56;4966410;28;20170;-75
2021/08/16 00:24:05;;;;;;;5.68;4.65;;;;;;;25.87;42.07;95062.84;4950177;28;20495;-74
2021/08/16 00:26:33;;;;;;;8.68;5.03;;;;;;;25.81;42.38;95071.16;4930120;29;20739;-74
2021/08/16 00:28:59;;;;;;;6.30;4.68;;;;;;;25.80;42.21;95069.69;4944033;29;20176;-73
2021/08/16 00:31:26;;;;;;;6.82;5.13;;;;;;;25.76;42.45;95073.25;4953380;28;20034;-74
2021/08/16 00:33:52;;;;;;;7.65;4.40;;;;;;;25.69;42.41;95074.59;4965527;28;20109;-74
2021/08/16 00:36:17;;;;;;;7.53;4.95;;;;;;;25.67;42.60;95082.59;4948701;28;20038;-75
2021/08/16 00:38:42;;;;;;;5.70;4.43;;;;;;;25.58;42.95;95079.50;4965370;28;20576;-76
2021/08/16 00:41:08;;;;;;;8.02;5.15;;;;;;;25.58;43.18;95076.75;4953810;28;20771;-76
2021/08/16 00:43:33;;;;;;;8.35;5.03;;;;;;;25.52;43.44;95087.06;4987491;28;20104;-76
2021/08/16 00:45:59;;;;;;;6.88;4.72;;;;;;;25.54;43.58;95084.53;4950301;28;20022;-73
2021/08/16 00:48:24;;;;;;;11.75;5.28;;;;;;;25.46;43.66;95078.19;4966934;28;20027;-74
2021/08/16 00:50:50;;;;;;;5.88;4.45;;;;;;;25.44;43.83;95069.75;4976833;28;20022;-75
2021/08/16 00:53:15;;;;;;;9.02;5.13;;;;;;;25.46;43.02;95078.19;4970529;28;20039;-76
2021/08/16 00:55:41;;;;;;;7.03;4.75;;;;;;;25.39;43.35;95074.06;4964871;28;20034;-76
2021/08/16 00:58:06;;;;;;;7.38;5.25;;;;;;;25.47;43.37;95068.72;4963557;28;20046;-76
2021/08/16 01:00:31;;;;;;;6.97;5.07;;;;;;;25.39;43.59;95073.31;4972449;28;20042;-74
2021/08/16 01:02:57;;;;;;;5.65;4.43;;;;;;;25.35;42.88;95075.63;4967935;28;20054;-76
2021/08/16 01:05:22;;;;;;;5.95;4.90;;;;;;;25.30;43.34;95072.97;4967384;28;20030;-74
2021/08/16 01:07:48;;;;;;;7.80;5.07;;;;;;;25.24;43.52;95067.59;4963661;28;20058;-76
2021/08/16 01:10:14;;;;;;;6.97;5.03;;;;;;;25.24;43.58;95078.53;4947829;28;20058;-74
2021/08/16 01:12:40;;;;;;;9.05;4.93;;;;;;;25.24;43.44;95073.06;4986646;28;20077;-74
2021/08/16 01:15:06;;;;;;;7.35;4.93;;;;;;;25.20;43.22;95078.09;4986658;28;20022;-74
2021/08/16 01:17:31;;;;;;;6.30;4.63;;;;;;;25.23;43.65;95071.59;4975847;28;20039;-74
2021/08/16 01:19:57;;;;;;;6.43;4.63;;;;;;;25.19;43.82;95076.63;4967880;28;20041;-74
2021/08/16 01:22:22;;;;;;;7.28;5.32;;;;;;;25.17;43.88;95072.91;4976063;28;20038;-74
2021/08/16 01:24:48;;;;;;;6.78;4.93;;;;;;;25.08;44.10;95076.78;4968515;28;20030;-74
2021/08/16 01:27:14;;;;;;;8.88;5.90;;;;;;;25.08;43.40;95082.25;4985832;28;20030;-74
2021/08/16 01:29:40;;;;;;;6.90;5.15;;;;;;;25.06;43.41;95079.28;4968077;28;20799;-74
2021/08/16 01:32:06;;;;;;;5.88;5.20;;;;;;;25.01;44.05;95071.91;4985104;28;20030;-74
2021/08/16 01:34:31;;;;;;;7.38;5.05;;;;;;;25.03;43.57;95083.06;4986343;28;20105;-74
2021/08/16 01:36:57;;;;;;;6.60;4.85;;;;;;;25.03;43.83;95080.31;4986250;28;20084;-73
2021/08/16 01:39:23;;;;;;;6.97;4.97;;;;;;;25.03;43.96;95066.66;4966168;28;20035;-74
2021/08/16 01:41:48;;;;;;;10.57;5.40;;;;;;;25.00;43.72;95075.16;4948405;29;20050;-74
2021/08/16 01:44:18;;;;;;;7.30;5.10;;;;;;;24.98;43.58;95067.47;4930658;29;20038;-74
2021/08/16 01:46:44;;;;;;;7.57;5.22;;;;;;;24.92;44.16;95069.53;4940552;28;20034;-74
2021/08/16 01:49:09;;;;;;;6.57;4.82;;;;;;;24.82;44.77;95069.69;4965449;28;20043;-73
2021/08/16 01:51:35;;;;;;;7.32;4.80;;;;;;;24.79;44.65;95070.72;4964068;28;20018;-76
2021/08/16 01:54:01;;;;;;;6.43;5.18;;;;;;;24.77;44.69;95078.66;4965144;28;20046;-74
2021/08/16 01:56:26;;;;;;;6.90;5.00;;;;;;;24.75;44.88;95060.06;4965685;28;20121;-74
2021/08/16 01:58:51;;;;;;;6.85;5.10;;;;;;;24.82;44.53;95064.22;4962985;28;20085;-76
2021/08/16 02:01:17;;;;;;;7.97;5.50;;;;;;;24.74;45.07;95068.78;4973381;28;20033;-76
2021/08/16 02:03:43;;;;;;;5.38;4.75;;;;;;;24.65;44.77;95066.41;4986252;28;20050;-74
2021/08/16 02:06:08;;;;;;;7.18;5.30;;;;;;;24.67;45.32;95063.94;4972637;28;20463;-76
2021/08/16 02:08:34;;;;;;;6.88;5.05;;;;;;;24.67;45.44;95069.38;4986701;28;20071;-76
2021/08/16 02:10:59;;;;;;;7.38;5.30;;;;;;;24.64;45.47;95075.88;4981789;28;20030;-76
2021/08/16 02:13:25;;;;;;;9.15;5.70;;;;;;;24.52;44.89;95066.34;4976565;28;20022;-76
2021/08/16 02:15:50;;;;;;;6.50;4.95;;;;;;;24.50;44.84;95066.88;4972207;28;20706;-73
2021/08/16 02:18:16;;;;;;;9.00;5.47;;;;;;;24.57;44.99;95071.75;4965945;28;20476;-75
2021/08/16 02:20:41;;;;;;;7.45;4.93;;;;;;;24.58;44.47;95072.47;4949609;28;20416;-75
2021/08/16 02:23:07;;;;;;;6.80;4.65;;;;;;;24.64;44.42;95075.88;4983997;28;20500;-75
2021/08/16 02:25:32;;;;;;;8.73;5.20;;;;;;;24.51;44.68;95062.13;4985175;28;20038;-75
2021/08/16 02:27:57;;;;;;;8.00;5.05;;;;;;;24.50;45.06;95071.59;4952144;28;20031;-75
2021/08/16 02:30:23;;;;;;;6.70;4.90;;;;;;;24.49;44.36;95075.56;4966725;28;20545;-74
2021/08/16 02:32:49;;;;;;;7.88;5.32;;;;;;;24.54;45.02;95077.47;4980753;28;20042;-75
2021/08/16 02:35:14;;;;;;;6.82;5.57;;;;;;;24.46;45.00;95076.59;4987436;28;20233;-75
2021/08/16 02:37:40;;;;;;;6.63;5.00;;;;;;;24.35;45.52;95076.72;4984941;28;20034;-75
2021/08/16 02:40:06;;;;;;;7.47;5.13;;;;;;;24.32;45.28;95083.19;4968943;28;20023;-75
2021/08/16 02:42:31;;;;;;;7.20;5.25;;;;;;;24.29;45.23;95089.69;4985428;28;20169;-76
2021/08/16 02:44:57;;;;;;;6.45;5.68;;;;;;;24.24;45.59;95082.28;4986145;28;20116;-75
2021/08/16 02:47:23;;;;;;;7.38;5.93;;;;;;;24.26;45.80;95079.78;4984167;28;20160;-75
2021/08/16 02:49:49;;;;;;;9.48;5.50;;;;;;;24.24;45.23;95076.81;4986261;28;20030;-74
2021/08/16 02:52:18;;;;;;;8.90;5.57;;;;;;;24.28;45.52;95071.81;4985499;28;20034;-75
2021/08/16 02:54:44;;;;;;;7.45;4.78;;;;;;;24.22;45.46;95079.31;4986329;28;20030;-75
2021/08/16 02:57:10;;;;;;;10.40;5.57;;;;;;;24.20;45.21;95076.38;4958523;28;20070;-75
2021/08/16 02:59:35;;;;;;;8.13;5.40;;;;;;;24.08;46.03;95075.03;4946144;28;20027;-75
2021/08/16 03:02:01;;;;;;;6.30;4.95;;;;;;;24.03;46.02;95083.97;4972252;28;20046;-75
2021/08/16 03:04:26;;;;;;;8.27;5.47;;;;;;;24.03;46.43;95081.25;4985477;28;20054;-75
2021/08/16 03:06:52;;;;;;;6.90;5.38;;;;;;;24.06;46.06;95077.50;4972689;28;20041;-76
2021/08/16 03:09:17;;;;;;;8.43;5.53;;;;;;;24.08;46.50;95072.28;4967859;28;20033;-76
2021/08/16 03:11:43;;;;;;;7.80;5.18;;;;;;;24.04;45.71;95069.09;4975440;28;20034;-76
2021/08/16 03:14:08;;;;;;;8.52;5.57;;;;;;;23.97;45.64;95075.13;4990430;28;20018;-75
2021/08/16 03:16:34;;;;;;;9.23;5.47;;;;;;;23.99;46.16;95075.38;4970599;28;20034;-75
2021/08/16 03:18:59;;;;;;;8.40;5.50;;;;;;;23.99;46.05;95071.88;4990330;28;20045;-75
2021/08/16 03:21:24;;;;;;;7.05;5.43;;;;;;;23.91;46.24;95066.25;4987302;28;20026;-75
2021/08/16 03:23:50;;;;;;;6.47;4.95;;;;;;;23.88;46.64;95063.81;4989829;28;20042;-76
2021/08/16 03:26:15;;;;;;;6.25;5.28;;;;;;;23.78;46.33;95067.38;4988836;28;20029;-76
2021/08/16 03:28:42;;;;;;;6.72;5.13;;;;;;;23.79;46.70;95074.31;4988266;28;20045;-76
2021/08/16 03:31:07;;;;;;;6.30;5.00;;;;;;;23.79;46.76;95074.31;4989120;28;20030;-76
2021/08/16 03:33:33;;;;;;;6.78;5.25;;;;;;;23.82;46.77;95073.31;4972692;28;20027;-75
2021/08/16 03:35:58;;;;;;;7.93;5.53;;;;;;;23.75;47.12;95079.31;4969907;28;20026;-75
2021/08/16 03:38:23;;;;;;;8.90;5.70;;;;;;;23.74;47.17;95083.31;4968182;28;20050;-75
2021/08/16 03:40:49;;;;;;;6.97;5.38;;;;;;;23.63;47.15;95070.47;4969598;28;20026;-75
2021/08/16 03:43:14;;;;;;;7.05;5.10;;;;;;;23.63;47.11;95083.34;4968319;28;20646;-76
2021/08/16 03:45:40;;;;;;;8.27;5.60;;;;;;;23.65;46.87;95086.34;4968562;28;20039;-76
2021/08/16 03:48:06;;;;;;;6.55;5.85;;;;;;;23.64;47.21;95085.59;4974108;28;20138;-76
2021/08/16 03:50:31;;;;;;;7.60;5.40;;;;;;;23.64;46.84;95084.88;4988257;28;20038;-76
2021/08/16 03:52:57;;;;;;;6.40;5.53;;;;;;;23.66;46.79;95079.66;4987221;28;20026;-75
2021/08/16 03:55:22;;;;;;;7.75;5.15;;;;;;;23.66;46.97;95087.81;4989038;28;20424;-75
2021/08/16 03:57:47;;;;;;;7.70;5.70;;;;;;;23.63;46.54;95088.81;4957058;28;20037;-75
2021/08/16 04:00:13;;;;;;;6.82;5.50;;;;;;;23.62;46.63;95092.81;4969473;28;20539;-75
2021/08/16 04:02:41;;;;;;;8.18;5.38;;;;;;;23.64;46.35;95090.31;4988374;28;20066;-75
2021/08/16 04:05:07;;;;;;;9.65;6.10;;;;;;;23.69;46.22;95081.34;4988019;28;20041;-75
2021/08/16 04:07:32;;;;;;;8.45;5.97;;;;;;;23.63;46.54;95083.34;4987640;28;20056;-74
2021/08/16 04:09:58;;;;;;;9.18;5.65;;;;;;;23.68;46.21;95096.25;4988446;28;20666;-75
2021/08/16 04:12:23;;;;;;;7.60;5.65;;;;;;;23.69;46.78;95097.72;4969263;28;20037;-74
2021/08/16 04:14:49;;;;;;;8.45;5.68;;;;;;;23.70;46.50;95099.19;4969147;28;20025;-74
2021/08/16 04:17:14;;;;;;;8.55;6.20;;;;;;;23.67;46.75;95100.22;4981982;28;20033;-74
2021/08/16 04:19:40;;;;;;;9.30;5.78;;;;;;;23.66;46.70;95101.44;4970620;28;20026;-74
2021/08/16 04:22:06;;;;;;;9.55;6.18;;;;;;;23.64;46.44;95098.50;4973904;28;20472;-75
2021/08/16 04:24:31;;;;;;;8.52;5.65;;;;;;;23.62;46.51;95092.81;4968446;28;20471;-75
2021/08/16 04:26:57;;;;;;;8.73;6.50;;;;;;;23.66;46.50;95099.47;4976835;28;20049;-75
2021/08/16 04:29:22;;;;;;;10.48;7.72;;;;;;;23.70;46.89;95099.19;4987606;28;20026;-74
2021/08/16 04:31:47;;;;;;;10.27;7.72;;;;;;;23.65;46.82;95103.44;4986415;28;20038;-74
2021/08/16 04:34:13;;;;;;;8.75;6.30;;;;;;;23.68;46.76;95096.97;4971013;28;20034;-74
2021/08/16 04:36:38;;;;;;;12.82;9.70;;;;;;;23.70;46.78;95099.94;4975423;28;20408;-74
2021/08/16 04:39:04;;;;;;;14.60;8.00;;;;;;;23.70;46.56;95088.28;4967810;28;20047;-74
2021/08/16 04:41:29;;;;;;;12.38;6.32;;;;;;;23.69;46.23;95103.16;4974580;28;20038;-74
2021/08/16 04:43:55;;;;;;;9.40;5.88;;;;;;;23.71;46.39;95087.78;4987215;28;20037;-74
2021/08/16 04:46:20;;;;;;;9.80;6.03;;;;;;;23.68;46.70;95091.53;4985975;28;20030;-75
2021/08/16 04:48:46;;;;;;;9.80;6.03;;;;;;;23.74;46.68;95094.22;4986262;28;20030;-74
2021/08/16 04:51:11;;;;;;;10.20;5.95;;;;;;;23.77;46.26;95098.66;4969573;28;20441;-74
2021/08/16 04:53:36;;;;;;;9.52;5.75;;;;;;;23.78;46.27;95089.19;4987948;28;20026;-76
2021/08/16 04:56:02;;;;;;;11.60;5.97;;;;;;;23.85;46.08;95094.09;4968387;28;20112;-74
2021/08/16 04:58:28;;;;;;;9.80;6.10;;;;;;;23.89;46.28;95098.75;4960906;28;20060;-76
2021/08/16 05:00:53;;;;;;;10.60;6.35;;;;;;;23.97;46.35;95102.41;4981036;28;20033;-75
2021/08/16 05:03:18;;;;;;;11.57;6.13;;;;;;;23.95;46.12;95115.81;4983163;28;20624;-75
2021/08/16 05:05:53;;;;;;;12.40;6.80;;;;;;;23.95;45.98;95099.44;4988048;28;20030;-74
2021/08/16 05:08:18;;;;;;;13.80;6.80;;;;;;;23.98;46.54;95109.34;4986882;28;20046;-74
2021/08/16 05:10:45;;;;;;;10.80;5.57;;;;;;;23.95;45.74;95088.53;4981209;28;20019;-75
2021/08/16 05:13:10;;;;;;;11.38;5.78;;;;;;;24.11;46.62;95106.75;4956257;28;20416;-73
2021/08/16 05:15:36;;;;;;;12.25;6.22;;;;;;;24.05;46.20;95113.47;4987212;28;20023;-76
2021/08/16 05:18:03;;;;;;;9.45;7.10;;;;;;;23.90;46.75;95124.78;4986512;28;20033;-75
2021/08/16 05:20:29;;;;;;;9.10;6.53;;;;;;;23.88;46.44;95115.63;4970544;28;20027;-76
2021/08/16 05:22:54;;;;;;;10.07;6.85;;;;;;;24.03;45.86;95116.72;4984140;28;20483;-73
2021/08/16 05:25:19;;;;;;;11.95;7.05;;;;;;;24.16;45.70;95118.84;4987106;28;20026;-75
2021/08/16 05:27:46;;;;;;;17.08;6.70;;;;;;;24.27;45.07;95116.72;4986755;28;20144;-73
2021/08/16 05:30:12;;;;;;;16.15;7.07;;;;;;;24.45;45.21;95124.25;4985835;28;20058;-72
2021/08/16 05:32:37;;;;;;;15.88;6.32;;;;;;;24.50;44.62;95109.81;4969660;28;20030;-72
2021/08/16 05:35:04;;;;;;;14.43;6.30;;;;;;;24.61;43.94;95110.41;4965864;28;20022;-71
2021/08/16 05:37:29;;;;;;;10.13;5.70;;;;;;;24.74;44.01;95117.94;4964132;28;20084;-71
2021/08/16 05:39:55;;;;;;;18.20;6.10;;;;;;;24.79;44.07;95114.41;4986401;28;20030;-71
2021/08/16 05:42:20;;;;;;;14.23;5.80;;;;;;;24.94;42.93;95116.19;4986076;28;20576;-71
2021/08/16 05:44:46;;;;;;;12.55;6.32;;;;;;;25.05;42.90;95116.09;4973749;28;20548;-70
2021/08/16 05:47:11;;;;;;;9.48;6.03;;;;;;;25.12;42.67;95114.75;4966767;28;20050;-71
2021/08/16 05:49:37;;;;;;;11.07;5.72;;;;;;;25.13;42.89;95106.03;4966569;28;20504;-70
2021/08/16 05:52:02;;;;;;;10.15;5.35;;;;;;;25.22;42.60;95119.31;4966510;28;20042;-70
2021/08/16 05:54:28;;;;;;;12.45;5.97;;;;;;;25.36;41.49;95112.66;4966564;28;20034;-71
2021/08/16 05:56:53;;;;;;;12.93;5.88;;;;;;;25.43;42.09;95112.06;4960162;28;20030;-70
2021/08/16 05:59:18;;;;;;;17.80;6.57;;;;;;;25.52;41.52;95109.66;4966301;28;20029;-71
2021/08/16 06:01:44;;;;;;;13.55;6.57;;;;;;;25.64;41.28;95121.94;4964394;28;20093;-72
2021/08/16 06:04:09;;;;;;;13.18;6.60;;;;;;;25.70;40.90;95108.16;4965820;28;20050;-69
2021/08/16 06:06:35;;;;;;;12.27;6.43;;;;;;;25.82;41.43;95105.44;4964917;28;20058;-69
2021/08/16 06:09:01;;;;;;;12.48;6.28;;;;;;;25.89;41.22;95109.59;4966340;28;20019;-71
2021/08/16 06:11:26;;;;;;;14.98;6.50;;;;;;;25.89;40.54;95104.84;4962580;28;20018;-71
2021/08/16 06:13:52;;;;;;;9.80;5.93;;;;;;;26.08;40.57;95097.28;4986179;28;20097;-72
2021/08/16 06:16:17;;;;;;;14.63;6.45;;;;;;;26.11;40.86;95101.69;4984282;28;20022;-73
2021/08/16 06:18:43;;;;;;;17.50;6.88;;;;;;;26.24;40.86;95107.19;4985953;28;20503;-72
2021/08/16 06:21:09;;;;;;;13.15;6.10;;;;;;;26.32;40.28;95102.59;4976760;28;20026;-72
2021/08/16 06:23:34;;;;;;;14.80;7.65;;;;;;;26.35;40.28;95112.50;4965662;28;20038;-71
2021/08/16 06:26:00;;;;;;;12.55;6.57;;;;;;;26.42;39.83;95112.59;4963277;28;20517;-71
2021/08/16 06:28:26;;;;;;;10.95;6.95;;;;;;;26.57;40.08;95106.59;4965760;28;20401;-70
2021/08/16 06:30:51;;;;;;;12.88;6.03;;;;;;;26.67;40.35;95116.59;4964980;28;20031;-72
2021/08/16 06:33:17;;;;;;;15.50;7.63;;;;;;;26.70;39.17;95114.81;4965465;28;20037;-71
2021/08/16 06:35:42;;;;;;;11.82;6.97;;;;;;;26.83;39.42;95108.03;4962368;28;20033;-72
2021/08/16 06:38:20;;;;;;;9.77;6.07;;;;;;;26.87;39.22;95113.19;4971484;28;20019;-71
2021/08/16 06:40:45;;;;;;;10.98;7.10;;;;;;;26.89;39.56;95105.97;4970241;28;20041;-73
2021/08/16 06:43:11;;;;;;;11.10;6.00;;;;;;;26.90;39.69;95112.91;4966642;28;20027;-72
2021/08/16 06:45:36;;;;;;;12.50;6.25;;;;;;;27.03;39.73;95109.41;4970425;28;20034;-72
2021/08/16 06:48:03;;;;;;;10.30;6.00;;;;;;;27.13;39.90;95113.91;4968986;28;20029;-72
2021/08/16 06:50:28;;;;;;;10.23;5.70;;;;;;;27.22;39.67;95104.50;4969136;28;20027;-72
2021/08/16 06:52:54;;;;;;;9.02;5.53;;;;;;;27.30;39.44;95111.53;4968214;28;20536;-72
2021/08/16 06:55:41;;;;;;;8.52;6.15;;;;;;;27.38;39.64;95112.34;4968860;28;20027;-72
2021/08/16 06:58:07;;;;;;;10.85;5.95;;;;;;;27.45;39.46;95111.69;4943937;28;20859;-72
2021/08/16 07:00:32;;;;;;;10.88;5.45;;;;;;;27.50;39.32;95119.06;4968814;28;20512;-72
2021/08/16 07:02:58;;;;;;;10.15;5.68;;;;;;;27.53;39.19;95118.00;4968852;28;20069;-72
2021/08/16 07:05:24;;;;;;;10.43;5.65;;;;;;;27.55;39.85;95109.97;4968010;28;20062;-72
2021/08/16 07:07:52;;;;;;;9.60;5.72;;;;;;;27.55;39.45;95116.22;4968572;28;20058;-73
2021/08/16 07:10:18;;;;;;;8.32;5.32;;;;;;;27.62;39.51;95120.28;4965358;28;20069;-74
2021/08/16 07:12:43;;;;;;;9.75;5.63;;;;;;;27.65;39.44;95113.75;4970019;28;20409;-71
2021/08/16 07:15:09;;;;;;;12.68;6.15;;;;;;;27.66;39.82;95120.72;4969254;28;20027;-76
2021/08/16 07:17:35;;;;;;;9.88;5.93;;;;;;;27.70;39.35;95115.59;4969462;28;20031;-72
2021/08/16 07:20:00;;;;;;;9.02;5.43;;;;;;;27.77;39.42;95110.19;4969288;28;20033;-74
2021/08/16 07:22:26;;;;;;;10.43;5.55;;;;;;;27.78;39.68;95117.88;4968086;28;20026;-72
2021/08/16 07:24:51;;;;;;;9.55;5.60;;;;;;;27.77;39.36;95110.94;4967754;28;20045;-72
2021/08/16 07:27:17;;;;;;;9.77;5.60;;;;;;;27.79;39.88;95124.84;4969309;28;20038;-73
2021/08/16 07:29:42;;;;;;;9.90;5.25;;;;;;;27.84;39.36;95121.22;4969236;28;20027;-72
2021/08/16 07:32:07;;;;;;;7.68;5.50;;;;;;;27.85;39.80;95117.22;4969297;28;20011;-72
2021/08/16 07:34:34;;;;;;;8.02;5.10;;;;;;;27.87;39.63;95113.94;4969279;28;20424;-72
2021/08/16 07:37:00;;;;;;;9.48;5.70;;;;;;;27.90;39.76;95110.84;4968779;28;20018;-72
2021/08/16 07:39:25;;;;;;;10.57;5.43;;;;;;;27.90;39.23;95110.84;4967898;28;20493;-72
2021/08/16 07:41:51;;;;;;;11.75;5.97;;;;;;;27.92;39.20;95111.06;4968465;28;20030;-72
2021/08/16 07:44:16;;;;;;;8.30;5.50;;;;;;;27.94;40.00;95103.03;4967850;28;20094;-74
2021/08/16 07:46:42;;;;;;;7.20;5.10;;;;;;;27.97;39.49;95107.44;4967612;28;20030;-74
2021/08/16 07:49:08;;;;;;;7.25;5.20;;;;;;;28.00;39.63;95100.88;4968640;28;20027;-73
2021/08/16 07:51:33;;;;;;;8.88;4.95;;;;;;;28.03;39.71;95099.78;4967973;28;20160;-72
2021/08/16 07:53:59;;;;;;;9.18;5.20;;;;;;;28.06;39.66;95098.72;4968559;28;20030;-73
2021/08/16 07:56:24;;;;;;;9.10;5.60;;;;;;;28.01;39.26;95096.88;4968744;28;20457;-72
2021/08/16 07:58:49;;;;;;;9.80;5.60;;;;;;;28.02;39.44;95092.81;4966641;28;20861;-72
2021/08/16 08:01:17;;;;;;;7.68;5.05;;;;;;;28.04;39.46;95095.03;4967540;28;20049;-72
2021/08/16 08:03:42;;;;;;;8.57;5.28;;;;;;;28.10;39.34;95099.16;4968753;28;20058;-72
2021/08/16 08:06:08;;;;;;;8.68;5.45;;;;;;;28.13;39.46;95109.06;4951315;28;20425;-73
2021/08/16 08:08:33;;;;;;;7.78;5.13;;;;;;;28.12;39.89;95091.09;4971169;28;20034;-73
2021/08/16 08:10:59;;;;;;;8.93;5.25;;;;;;;28.13;39.35;95098.09;4967516;28;20026;-72
2021/08/16 08:13:24;;;;;;;6.85;5.13;;;;;;;28.16;39.40;95088.75;4972279;28;20085;-72
2021/08/16 08:15:49;;;;;;;8.95;5.68;;;;;;;28.18;39.84;95094.44;4971062;28;20030;-73
2021/08/16 08:18:15;;;;;;;7.10;4.53;;;;;;;28.18;39.28;95105.44;4969024;28;20027;-72
2021/08/16 08:20:40;;;;;;;8.13;5.07;;;;;;;28.22;39.15;95094.84;4984347;28;20034;-72
2021/08/16 08:23:08;;;;;;;8.35;5.22;;;;;;;28.21;39.75;95081.66;4970784;28;20034;-73
2021/08/16 08:25:33;;;;;;;7.70;5.00;;;;;;;28.22;39.35;95088.59;4988239;28;20038;-73
2021/08/16 08:28:00;;;;;;;8.23;4.78;;;;;;;28.23;39.00;95090.81;4965147;28;20042;-73
2021/08/16 08:30:25;;;;;;;7.43;5.05;;;;;;;28.23;39.35;95085.31;4970189;28;20541;-73
2021/08/16 08:32:52;;;;;;;7.63;5.57;;;;;;;28.23;38.91;95090.81;4990549;28;20061;-74
2021/08/16 08:35:19;;;;;;;8.50;5.05;;;;;;;28.27;39.18;95085.72;4968921;28;20029;-73
2021/08/16 08:37:44;;;;;;;7.97;5.20;;;;;;;28.26;39.05;95078.75;4959225;28;20031;-73
2021/08/16 08:40:10;;;;;;;9.15;5.35;;;;;;;28.28;39.30;95076.19;4949755;28;20023;-73
2021/08/16 08:42:37;;;;;;;9.15;5.18;;;;;;;28.29;39.28;95072.16;4985637;28;20030;-74
2021/08/16 08:45:03;;;;;;;9.27;5.45;;;;;;;28.30;39.36;95073.66;4970096;28;20279;-73
2021/08/16 08:47:28;;;;;;;9.02;5.00;;;;;;;28.33;38.71;95067.06;4969096;28;20019;-74
2021/08/16 08:49:54;;;;;;;10.48;5.25;;;;;;;28.30;39.52;95073.66;4950482;28;20547;-73
2021/08/16 08:52:19;;;;;;;7.00;5.13;;;;;;;28.33;39.21;95061.59;4969545;28;20120;-74
2021/08/16 08:54:44;;;;;;;8.82;5.00;;;;;;;28.30;39.19;95057.91;4968382;28;20038;-74
2021/08/16 08:57:16;;;;;;;8.45;5.05;;;;;;;28.34;39.08;95063.03;4970396;28;20528;-74
2021/08/16 08:59:43;;;;;;;7.38;4.97;;;;;;;28.36;38.79;95055.00;4952984;28;21198;-73
2021/08/16 09:02:09;;;;;;;7.50;4.80;;;;;;;28.37;39.32;95056.47;4967480;28;20062;-73
2021/08/16 09:04:35;;;;;;;8.20;5.07;;;;;;;28.38;39.06;95057.94;4949436;28;20051;-73
2021/08/16 09:07:01;;;;;;;8.30;4.90;;;;;;;28.37;38.94;95061.94;4967421;28;20042;-76
2021/08/16 09:09:26;;;;;;;7.15;4.88;;;;;;;28.37;39.10;95056.47;4962293;28;20082;-74
2021/08/16 09:11:53;;;;;;;7.85;4.95;;;;;;;28.38;39.00;95055.19;4948594;28;20034;-73
2021/08/16 09:14:18;;;;;;;7.97;5.15;;;;;;;28.38;39.66;95052.44;4965943;28;20049;-73
2021/08/16 09:16:46;;;;;;;10.02;5.35;;;;;;;28.39;38.66;95048.44;4965341;28;20011;-77
2021/08/16 09:19:23;;;;;;;8.50;4.75;;;;;;;28.45;38.19;95041.50;4965487;28;20169;-77
2021/08/16 09:22:05;;;;;;;7.45;4.65;;;;;;;28.51;38.36;95038.59;4965814;28;20081;-74
2021/08/16 09:24:34;;;;;;;7.78;5.07;;;;;;;28.61;37.76;95036.78;4967578;28;20101;-75
2021/08/16 09:27:08;;;;;;;7.13;5.03;;;;;;;28.62;37.86;95027.28;4950575;28;20166;-74
2021/08/16 09:29:33;;;;;;;7.80;5.38;;;;;;;28.24;36.69;95032.59;4967666;28;20151;-74
2021/08/16 09:32:01;;;;;;;8.38;5.40;;;;;;;27.88;37.21;95028.31;4966805;28;20433;-73
2021/08/16 09:34:36;;;;;;;6.75;4.95;;;;;;;27.75;36.83;95031.13;4967251;28;20014;-73
2021/08/16 09:37:02;;;;;;;6.35;5.00;;;;;;;27.65;36.99;95036.91;4965693;28;20105;-71
2021/08/16 09:39:33;;;;;;;7.05;5.25;;;;;;;27.50;36.89;95025.81;4967055;28;20034;-72
2021/08/16 09:42:03;;;;;;;6.38;4.75;;;;;;;27.40;36.58;95022.03;4964834;28;20061;-73
2021/08/16 09:44:28;;;;;;;5.30;4.75;;;;;;;27.15;37.19;95018.16;4966843;28;20065;-74
2021/08/16 09:47:01;;;;;;;6.55;4.82;;;;;;;26.91;36.93;95021.19;4966525;28;20830;-72
2021/08/16 09:49:26;;;;;;;7.85;5.63;;;;;;;26.79;38.03;95014.44;4966975;28;20489;-73
2021/08/16 09:52:05;;;;;;;7.35;5.00;;;;;;;26.69;39.17;95020.19;4949741;28;20030;-79
2021/08/16 09:54:32;;;;;;;6.35;4.72;;;;;;;26.80;39.57;95015.94;4953212;28;20034;-75
2021/08/16 09:56:57;;;;;;;6.20;5.20;;;;;;;26.98;40.69;95003.34;4967818;28;20375;-78
2021/08/16 09:59:23;;;;;;;7.10;4.85;;;;;;;27.13;40.95;95008.97;4962114;28;20545;-77
2021/08/16 10:01:48;;;;;;;6.85;4.85;;;;;;;27.33;42.57;95000.75;4971624;28;20041;-75
2021/08/16 10:04:14;;;;;;;6.53;5.13;;;;;;;-140.79;100.00;63287.88;4973044;28;20171;-75
2021/08/16 10:06:39;;;;;;;7.07;4.65;;;;;;;27.67;44.06;94984.94;4970397;28;20433;-72
2021/08/16 10:09:05;;;;;;;7.32;4.55;;;;;;;27.81;43.57;94996.03;4967301;28;20509;-75
2021/08/16 10:11:31;;;;;;;5.72;4.65;;;;;;;27.87;43.26;94982.91;4961233;28;20760;-74
2021/08/16 10:13:56;;;;;;;5.35;4.15;;;;;;;27.97;42.31;94980.41;4968847;28;20027;-74
2021/08/16 10:16:41;;;;;;;5.97;4.72;;;;;;;28.03;41.85;94973.50;4969003;28;20505;-73
2021/08/16 10:19:13;;;;;;;4.93;4.05;;;;;;;28.02;41.75;94974.75;4949756;28;20031;-74
2021/08/16 10:21:39;;;;;;;5.15;4.13;;;;;;;28.06;41.84;94971.69;4965975;28;20559;-79
2021/08/16 10:24:20;;;;;;;5.55;4.40;;;;;;;28.13;41.08;94971.75;4949777;28;20035;-78
2021/08/16 10:27:03;;;;;;;7.28;4.47;;;;;;;28.00;41.25;94974.56;4965680;28;20027;-75
2021/08/16 10:29:30;;;;;;;5.70;4.50;;;;;;;27.84;40.05;94967.50;4966851;28;20027;-74
2021/08/16 10:31:56;;;;;;;7.18;4.38;;;;;;;27.73;40.52;94971.81;4966634;28;20291;-72
2021/08/16 10:34:28;;;;;;;5.57;4.25;;;;;;;27.54;40.05;94972.06;4965217;28;20061;-74
2021/08/16 10:37:04;;;;;;;5.30;4.05;;;;;;;27.47;39.79;94966.50;4963538;28;20019;-77
2021/08/16 10:39:36;;;;;;;6.97;4.43;;;;;;;27.39;39.52;94957.47;4966222;28;20035;-77
2021/08/16 10:42:09;;;;;;;5.38;4.28;;;;;;;27.26;39.46;94963.03;4964301;28;20422;-77
2021/08/16 10:45:03;;;;;;;6.15;4.13;;;;;;;27.22;39.59;94957.16;4965871;28;20088;-76
2021/08/16 10:47:33;;;;;;;5.68;4.60;;;;;;;27.25;39.51;94967.06;4965742;28;20062;-74
2021/08/16 10:50:05;;;;;;;4.35;3.70;;;;;;;27.28;39.64;94955.03;4965983;28;20038;-74
2021/08/16 10:52:31;;;;;;;6.13;4.80;;;;;;;27.15;39.63;94946.84;4974092;28;20026;-74
2021/08/16 10:55:06;;;;;;;6.43;4.28;;;;;;;26.91;39.71;94944.44;4966663;28;20805;-74
2021/08/16 10:57:33;;;;;;;5.30;4.15;;;;;;;26.86;40.19;94948.03;4959831;28;20047;-74
2021/08/16 10:59:58;;;;;;;5.32;4.32;;;;;;;26.75;40.09;94935.84;4965487;28;20488;-75
2021/08/16 11:02:24;;;;;;;6.78;4.53;;;;;;;26.59;40.68;94928.75;4948816;28;20023;-73
2021/08/16 11:04:50;;;;;;;5.72;4.38;;;;;;;26.69;41.31;94932.50;4952656;28;20038;-74
2021/08/16 11:07:23;;;;;;;5.35;4.10;;;;;;;26.76;41.52;94927.81;4969004;28;20027;-74
2021/08/16 11:10:08;;;;;;;6.03;4.20;;;;;;;26.96;42.24;48624.34;4947518;28;20529;-74
2021/08/16 11:12:39;;;;;;;6.00;4.15;;;;;;;27.11;43.44;94918.31;4966069;28;20097;-75
2021/08/16 11:15:06;;;;;;;5.60;4.25;;;;;;;27.36;44.68;94911.94;4966344;28;20022;-74
2021/08/16 11:17:31;;;;;;;5.53;4.28;;;;;;;27.54;44.79;94921.97;4966397;28;20093;-76
2021/08/16 11:19:58;;;;;;;5.57;4.15;;;;;;;27.64;44.03;94909.19;4966326;28;20918;-74
2021/08/16 11:22:24;;;;;;;4.60;3.58;;;;;;;27.60;41.25;94908.81;4956792;28;20069;-74
2021/08/16 11:24:49;;;;;;;5.45;3.80;;;;;;;27.32;40.11;94911.53;4948138;28;20034;-76
2021/08/16 11:27:23;;;;;;;5.70;4.05;;;;;;;27.09;38.53;94905.13;4965591;28;20030;-75
2021/08/16 11:29:58;;;;;;;4.68;3.67;;;;;;;26.81;37.37;94907.78;4966248;28;20433;-75
2021/08/16 11:32:24;;;;;;;4.60;3.90;;;;;;;26.67;36.52;94896.69;4969399;28;20050;-75